Chestertown, New York
Current Conditions -  °F | °C
As of 5:22 AM on Saturday 20 Dec 2014 (Local Time) from KGFL Reporting Station
Scattered Clouds Scattered Clouds  
Wind Chill: 19°   Ceiling: Unl
Heat Index: 19°   Visibility: 10mi
Dew Point: 15°   Wind: 0mph
Humidity: 85%   Direction: NA
Pressure: 30.27"   Gusts: NA
Location:  43.65°N, 73.8°W
Report Text: KGFL 201022Z AUTO 00000KT 10SM SCT017 M07/M09 A3027 RMK AO2 T10721094
Loading
Personal Weather Stations






























Interactive Weather Map New forecast layout! Learn more

10-Day Weather Forecast

Advertisements
Track Severe Weather on mobile